Time;durP1;ratioP1;P1;durP2;ratioP2;P2;SDS_P1;SDS_P2;PMS_P1;PMS_P2;Temp;Humidity;BMP_temperature;BMP_pressure;BME280_temperature;BME280_humidity;BME280_pressure;Samples;Min_cycle;Max_cycle;Signal;HPM_P1;HPM_P2
2023/10/09 00:03:06;;;;;;;1.60;0.90;;;;;;;8.76;69.58;99278.70;104300;1267;72740;-61
2023/10/09 00:05:45;;;;;;;1.30;0.50;;;;;;;8.74;68.83;99287.52;104227;1268;70059;-60
2023/10/09 00:08:18;;;;;;;3.10;0.60;;;;;;;8.71;68.30;99284.48;104258;1262;72506;-61
2023/10/09 00:10:52;;;;;;;0.50;0.30;;;;;;;8.72;68.25;99291.27;104173;1263;59772;-61
2023/10/09 00:13:28;;;;;;;0.50;0.50;;;;;;;8.77;68.78;99294.92;104253;1257;60706;-61
2023/10/09 00:16:13;;;;;;;4.30;0.60;;;;;;;8.78;68.70;99296.27;104255;1269;72841;-61
2023/10/09 00:18:47;;;;;;;1.60;0.60;;;;;;;8.74;68.75;99292.08;104443;1269;69735;-60
2023/10/09 00:21:20;;;;;;;1.30;0.50;;;;;;;8.73;68.73;99294.88;106384;1256;72408;-62
2023/10/09 00:23:59;;;;;;;0.80;0.70;;;;;;;8.81;69.36;99298.41;107776;1255;58973;-62
2023/10/09 00:26:29;;;;;;;3.90;1.20;;;;;;;8.84;70.12;99305.27;105555;1255;59839;-61
2023/10/09 00:28:57;;;;;;;1.90;1.20;;;;;;;8.84;71.39;99314.05;104405;1262;72909;-62
2023/10/09 00:31:33;;;;;;;2.00;1.00;;;;;;;8.74;73.99;99317.56;105326;1256;69006;-62
2023/10/09 00:34:02;;;;;;;3.70;0.70;;;;;;;8.63;78.71;99316.98;106791;1257;72308;-62
2023/10/09 00:36:30;;;;;;;1.10;0.70;;;;;;;8.57;81.25;99318.77;105643;1257;59926;-62
2023/10/09 00:39:00;;;;;;;2.10;0.60;;;;;;;8.55;81.33;99322.35;105139;1254;59706;-61
2023/10/09 00:41:29;;;;;;;1.80;0.70;;;;;;;8.47;84.84;99325.27;104191;1267;72744;-62
2023/10/09 00:43:59;;;;;;;2.50;0.60;;;;;;;8.48;84.09;99327.70;104368;1257;69042;-62
2023/10/09 00:46:27;;;;;;;0.90;0.60;;;;;;;8.50;83.96;99327.27;104235;1261;72491;-61
2023/10/09 00:49:02;;;;;;;2.80;0.60;;;;;;;8.51;84.08;99329.81;104046;1262;60708;-60
2023/10/09 00:51:36;;;;;;;2.00;0.60;;;;;;;8.47;85.53;99330.86;104388;1260;60203;-61
2023/10/09 00:54:19;;;;;;;1.40;0.50;;;;;;;8.48;84.92;99331.52;104129;1260;71851;-62
2023/10/09 00:56:57;;;;;;;1.90;0.80;;;;;;;8.50;84.48;99334.23;104294;1273;69089;-62
2023/10/09 00:59:25;;;;;;;2.40;0.70;;;;;;;8.54;83.07;99337.56;104128;1261;72946;-62
2023/10/09 01:02:04;;;;;;;0.90;0.60;;;;;;;8.52;83.03;99338.02;104178;1258;59711;-64
2023/10/09 01:04:32;;;;;;;3.60;0.50;;;;;;;8.58;82.87;99334.83;104209;1271;59873;-61
2023/10/09 01:07:10;;;;;;;0.70;0.40;;;;;;;8.59;82.87;99342.27;104105;1262;72879;-60
2023/10/09 01:09:42;;;;;;;1.50;0.50;;;;;;;8.60;81.96;99343.46;104328;1262;69316;-62
2023/10/09 01:12:19;;;;;;;2.70;0.70;;;;;;;8.64;81.91;99346.46;104396;1269;72946;-62
2023/10/09 01:14:55;;;;;;;1.90;0.50;;;;;;;8.68;81.11;99348.04;107778;1255;60642;-62
2023/10/09 01:17:35;;;;;;;0.50;0.50;;;;;;;8.70;80.75;99346.92;105649;1255;60227;-62
2023/10/09 01:20:15;;;;;;;3.40;1.00;;;;;;;8.66;80.87;99350.90;104019;1263;73579;-61
2023/10/09 01:22:43;;;;;;;4.30;0.70;;;;;;;8.65;80.03;99351.46;107870;1256;68118;-62
2023/10/09 01:25:13;;;;;;;0.70;0.70;;;;;;;8.66;79.58;99352.85;107847;1257;72473;-62
2023/10/09 01:27:43;;;;;;;0.60;0.60;;;;;;;8.72;79.02;99352.77;106199;1257;60729;-62
2023/10/09 01:30:13;;;;;;;5.00;0.80;;;;;;;8.75;78.44;99359.12;104225;1257;60532;-61
2023/10/09 01:32:46;;;;;;;4.30;0.50;;;;;;;8.75;78.35;99369.07;104233;1273;73704;-64
2023/10/09 01:35:23;;;;;;;1.50;0.60;;;;;;;8.71;78.89;99365.73;104317;1260;69590;-61
2023/10/09 01:37:51;;;;;;;1.20;0.40;;;;;;;8.69;80.48;99376.31;104298;1266;73381;-62
2023/10/09 01:40:27;;;;;;;2.20;0.60;;;;;;;8.57;83.95;99382.50;104276;1261;60970;-62
2023/10/09 01:42:57;;;;;;;2.30;0.50;;;;;;;8.63;84.71;99393.33;104256;1263;60494;-63
2023/10/09 01:47:56;;;;;;;0.80;0.60;;;;;;;8.58;85.97;99397.88;104431;1261;69104;-63
2023/10/09 01:50:27;;;;;;;1.20;0.50;;;;;;;8.58;86.51;99399.43;104255;1263;72882;-65
2023/10/09 01:52:55;;;;;;;4.10;0.60;;;;;;;8.51;87.18;99396.05;104242;1257;60962;-63
2023/10/09 01:55:39;;;;;;;4.30;0.40;;;;;;;8.38;89.92;99403.34;104274;1260;60451;-63
2023/10/09 02:00:55;;;;;;;1.80;0.60;;;;;;;8.30;91.68;99418.11;104138;1272;69561;-64
2023/10/09 02:03:23;;;;;;;1.40;0.60;;;;;;;8.24;93.89;99417.45;104392;1257;72874;-64
2023/10/09 02:05:53;;;;;;;3.70;0.30;;;;;;;8.23;96.04;99420.12;104333;1254;60965;-64
2023/10/09 02:08:27;;;;;;;;;;;;;;;8.23;97.33;99427.79;104058;1264;59971;-64
2023/10/09 02:10:56;;;;;;;0.40;0.40;;;;;;;8.15;98.80;99436.98;104240;1261;76025;-63
2023/10/09 02:13:29;;;;;;;;;;;;;;;8.06;99.67;99445.70;104141;1258;70000;-64
2023/10/09 02:16:28;;;;;;;0.30;0.30;;;;;;;7.96;100.00;99443.27;104246;1261;73376;-64
2023/10/09 02:18:56;;;;;;;0.60;0.50;;;;;;;7.87;100.00;99441.48;106519;1255;60583;-65
2023/10/09 02:21:33;;;;;;;;;;;;;;;7.82;100.00;99437.10;107878;1254;59764;-67
2023/10/09 02:24:07;;;;;;;0.50;0.50;;;;;;;7.83;100.00;99440.90;107653;1254;74097;-63
2023/10/09 02:29:14;;;;;;;1.00;0.70;;;;;;;7.83;100.00;99446.85;104193;1260;72766;-64
2023/10/09 02:31:51;;;;;;;0.90;0.30;;;;;;;7.82;100.00;99445.67;104287;1262;60710;-63
2023/10/09 02:34:22;;;;;;;0.40;0.40;;;;;;;7.88;100.00;99451.77;104377;1256;60688;-64
2023/10/09 02:36:57;;;;;;;1.10;0.30;;;;;;;7.92;100.00;99446.00;107847;1255;73617;-63
2023/10/09 02:39:28;;;;;;;0.50;0.40;;;;;;;7.94;100.00;99454.14;105188;1257;69318;-65
2023/10/09 02:42:06;;;;;;;1.70;0.40;;;;;;;7.94;100.00;99459.73;104291;1262;72875;-65
2023/10/09 02:44:39;;;;;;;0.60;0.50;;;;;;;7.98;100.00;99463.42;104363;1262;60623;-65
2023/10/09 02:47:17;;;;;;;1.60;0.50;;;;;;;7.98;100.00;99463.77;104131;1262;60681;-63
2023/10/09 02:49:48;;;;;;;0.40;0.40;;;;;;;7.99;100.00;99456.92;104321;1261;73999;-64
2023/10/09 02:52:24;;;;;;;1.30;0.50;;;;;;;7.95;100.00;99461.10;104453;1260;68468;-63
2023/10/09 02:54:59;;;;;;;3.70;0.40;;;;;;;7.86;100.00;99468.55;104170;1273;72378;-66
2023/10/09 02:57:36;;;;;;;1.20;0.50;;;;;;;7.88;100.00;99478.80;104170;1262;60707;-62
2023/10/09 03:00:29;;;;;;;2.20;0.60;;;;;;;7.96;100.00;99475.73;104210;1261;60477;-63
2023/10/09 03:02:58;;;;;;;3.10;0.70;;;;;;;7.98;100.00;99479.14;104118;1276;74075;-63
2023/10/09 03:05:28;;;;;;;0.70;0.40;;;;;;;7.89;100.00;99469.86;104246;1260;69208;-64
2023/10/09 03:07:56;;;;;;;0.70;0.60;;;;;;;7.80;100.00;99468.05;104260;1257;72311;-63
2023/10/09 03:10:25;;;;;;;;;;;;;;;7.76;100.00;99468.88;104666;1261;61506;-64
2023/10/09 03:12:53;;;;;;;1.40;0.80;;;;;;;7.72;100.00;99478.62;104101;1257;60524;-63
2023/10/09 03:15:21;;;;;;;1.00;0.60;;;;;;;7.72;100.00;99483.17;104240;1257;72617;-63
2023/10/09 03:17:49;;;;;;;0.40;0.40;;;;;;;7.72;100.00;99486.83;105881;1256;70331;-63
2023/10/09 03:20:19;;;;;;;1.70;1.00;;;;;;;7.65;100.00;99488.80;104658;1257;71769;-63
2023/10/09 03:22:48;;;;;;;1.60;0.70;;;;;;;7.64;100.00;99487.77;104276;1261;60955;-63
2023/10/09 03:25:16;;;;;;;1.50;0.60;;;;;;;7.62;100.00;99490.30;104244;1263;60901;-63
2023/10/09 03:27:45;;;;;;;4.20;0.50;;;;;;;7.56;100.00;99486.83;104276;1257;73738;-63
2023/10/09 03:30:16;;;;;;;1.10;0.30;;;;;;;7.55;100.00;99492.09;104201;1256;69171;-63
2023/10/09 03:32:50;;;;;;;0.90;0.50;;;;;;;7.54;100.00;99493.15;104189;1262;72430;-63
2023/10/09 03:35:24;;;;;;;1.90;0.50;;;;;;;7.56;100.00;99494.88;104355;1259;60848;-64
2023/10/09 03:37:57;;;;;;;1.30;0.50;;;;;;;7.57;100.00;99498.48;104412;1259;60065;-63
2023/10/09 03:40:25;;;;;;;0.60;0.40;;;;;;;7.56;100.00;99501.98;104266;1259;72733;-64
2023/10/09 03:42:55;;;;;;;1.00;0.40;;;;;;;7.54;100.00;99500.85;104336;1257;68311;-64
2023/10/09 03:45:27;;;;;;;0.60;0.50;;;;;;;7.57;100.00;99500.25;104341;1253;71762;-64
2023/10/09 03:47:57;;;;;;;1.90;0.40;;;;;;;7.58;100.00;99494.98;104458;1259;60566;-65
2023/10/09 03:50:35;;;;;;;0.90;0.50;;;;;;;7.58;100.00;99498.45;104371;1257;60686;-64
2023/10/09 03:53:07;;;;;;;0.40;0.40;;;;;;;7.58;100.00;99502.27;104521;1256;74021;-64
2023/10/09 03:55:42;;;;;;;1.70;0.30;;;;;;;7.55;100.00;99505.52;104318;1260;69171;-63
2023/10/09 03:58:14;;;;;;;0.50;0.50;;;;;;;7.53;100.00;99506.98;104342;1273;73368;-66
2023/10/09 04:00:45;;;;;;;1.00;0.80;;;;;;;7.54;100.00;99510.28;104392;1258;60980;-65
2023/10/09 04:03:15;;;;;;;0.80;0.50;;;;;;;7.55;100.00;99516.69;104467;1255;60493;-66
2023/10/09 04:05:43;;;;;;;1.50;0.60;;;;;;;7.50;100.00;99519.48;104363;1257;73734;-66
2023/10/09 04:08:13;;;;;;;1.10;0.50;;;;;;;7.33;100.00;99525.95;104366;1260;69613;-67
2023/10/09 04:10:50;;;;;;;0.80;0.40;;;;;;;7.31;100.00;99530.88;104207;1257;72472;-66
2023/10/09 04:13:25;;;;;;;1.10;0.50;;;;;;;7.30;100.00;99533.02;104578;1258;60325;-66
2023/10/09 04:15:54;;;;;;;1.10;0.40;;;;;;;7.26;100.00;99532.09;106638;1252;60476;-67
2023/10/09 04:18:28;;;;;;;1.00;0.60;;;;;;;7.24;100.00;99534.95;105040;1273;74276;-66
2023/10/09 04:21:34;;;;;;;1.30;0.70;;;;;;;7.24;100.00;99539.66;104696;1258;69749;-66
2023/10/09 04:24:22;;;;;;;1.40;0.70;;;;;;;7.21;100.00;99538.01;104753;1257;72737;-65
2023/10/09 04:26:56;;;;;;;1.30;0.50;;;;;;;7.20;100.00;99541.67;104527;1259;60607;-65
2023/10/09 04:29:27;;;;;;;1.60;0.70;;;;;;;7.23;100.00;99548.05;104342;1257;60536;-65
2023/10/09 04:31:59;;;;;;;2.30;0.70;;;;;;;7.21;100.00;99552.65;104248;1269;73668;-65
2023/10/09 04:34:34;;;;;;;0.50;0.50;;;;;;;7.18;100.00;99554.98;104516;1259;69555;-66
2023/10/09 04:39:48;;;;;;;1.20;0.70;;;;;;;7.05;100.00;99562.52;104917;1257;60718;-65
2023/10/09 04:42:26;;;;;;;1.90;0.60;;;;;;;7.04;100.00;99568.84;107805;1253;60616;-67
2023/10/09 04:47:49;;;;;;;0.60;0.60;;;;;;;7.11;100.00;99570.54;107966;1254;70062;-66
2023/10/09 04:53:04;;;;;;;1.00;0.70;;;;;;;7.14;100.00;99583.02;104619;1255;61171;-65
2023/10/09 04:55:38;;;;;;;1.80;0.70;;;;;;;7.16;100.00;99582.77;104315;1263;60600;-66
2023/10/09 04:58:12;;;;;;;1.40;0.80;;;;;;;7.20;100.00;99584.21;104601;1269;74068;-61
2023/10/09 05:03:12;;;;;;;1.80;0.60;;;;;;;7.21;100.00;99587.85;104447;1265;72526;-61
2023/10/09 05:08:28;;;;;;;2.20;0.50;;;;;;;7.19;100.00;99595.77;104464;1258;60440;-60
2023/10/09 05:16:26;;;;;;;1.40;0.70;;;;;;;7.30;100.00;99617.05;106898;1254;72928;-61
2023/10/09 05:19:06;;;;;;;1.50;0.70;;;;;;;7.36;100.00;99618.98;108286;1253;61537;-61
2023/10/09 05:29:19;;;;;;;0.80;0.50;;;;;;;7.58;100.00;99620.91;104793;1254;71550;-60
2023/10/09 05:34:33;;;;;;;1.20;0.80;;;;;;;7.67;100.00;99625.88;104439;1260;60919;-61
2023/10/09 05:37:22;;;;;;;2.80;0.90;;;;;;;7.72;100.00;99631.63;104314;1260;73652;-60
2023/10/09 05:47:57;;;;;;;2.10;1.00;;;;;;;7.87;100.00;99641.48;104268;1260;60511;-61
2023/10/09 06:06:32;;;;;;;1.40;0.90;;;;;;;8.40;96.88;99645.69;104509;1270;69165;-62
2023/10/09 06:14:49;;;;;;;3.50;0.90;;;;;;;8.65;92.88;99660.75;104457;1257;59697;-60
2023/10/09 06:19:44;;;;;;;4.20;1.30;;;;;;;8.80;88.10;99668.28;104914;1254;69235;-61
2023/10/09 06:24:54;;;;;;;2.00;1.50;;;;;;;8.87;86.34;99670.81;104476;1276;60795;-60
2023/10/09 06:32:57;;;;;;;5.70;3.10;;;;;;;9.11;83.57;99663.34;104405;1257;70349;-61
2023/10/09 06:35:32;;;;;;;10.30;2.20;;;;;;;9.14;80.41;99662.70;108409;1254;73359;-62
2023/10/09 06:45:57;;;;;;;2.80;1.10;;;;;;;9.51;78.63;99668.14;108294;1254;69093;-61
2023/10/09 06:51:12;;;;;;;3.00;0.90;;;;;;;9.52;73.88;99668.09;108343;1254;61083;-61
2023/10/09 06:59:21;;;;;;;1.50;1.00;;;;;;;9.83;76.57;99675.15;108450;1254;69381;-61
2023/10/09 07:07:13;;;;;;;2.20;0.80;;;;;;;10.04;72.20;99674.31;108498;1253;59733;-62
2023/10/09 07:10:28;;;;;;;1.20;0.50;;;;;;;10.08;71.09;99672.39;108411;1253;72889;-61
2023/10/09 07:12:42;;;;;;;2.00;1.00;;;;;;;10.14;71.13;99666.73;108470;1254;69109;-61
2023/10/09 07:18:20;;;;;;;1.20;0.60;;;;;;;10.34;70.50;99679.96;107753;1254;59204;-61
2023/10/09 07:20:58;;;;;;;2.70;0.80;;;;;;;10.41;69.82;99682.48;108277;1254;59681;-61
2023/10/09 07:23:32;;;;;;;4.60;0.90;;;;;;;10.45;69.23;99675.63;108229;1252;73755;-62
2023/10/09 07:26:17;;;;;;;1.40;0.80;;;;;;;10.50;68.13;99684.70;108227;1253;69135;-61
2023/10/09 07:28:48;;;;;;;2.60;1.20;;;;;;;10.53;68.18;99686.86;108204;1254;72675;-62
2023/10/09 07:31:39;;;;;;;1.90;0.70;;;;;;;10.59;67.27;99687.33;108266;1252;58957;-61
2023/10/09 07:34:30;;;;;;;1.90;0.80;;;;;;;10.63;67.09;99693.63;108487;1254;59670;-61
2023/10/09 07:36:56;;;;;;;1.70;0.60;;;;;;;10.78;67.15;99701.79;108463;1254;74557;-61
2023/10/09 07:39:34;;;;;;;3.50;0.80;;;;;;;10.88;66.30;99702.20;108403;1253;69751;-61
2023/10/09 07:42:26;;;;;;;2.00;1.20;;;;;;;10.89;63.74;99704.27;108407;1253;73291;-61
2023/10/09 07:44:57;;;;;;;1.30;1.10;;;;;;;10.83;61.83;99702.79;108579;1253;58976;-61
2023/10/09 07:50:11;;;;;;;2.90;1.30;;;;;;;10.96;62.05;99708.02;108457;1254;74544;-63
2023/10/09 07:52:44;;;;;;;1.10;0.90;;;;;;;11.04;62.52;99709.77;108381;1254;68125;-63
2023/10/09 07:55:26;;;;;;;1.60;0.90;;;;;;;11.12;62.37;99706.25;108369;1254;72328;-62
2023/10/09 07:57:54;;;;;;;1.70;0.80;;;;;;;11.15;60.77;99699.85;108461;1254;58537;-62
2023/10/09 08:00:49;;;;;;;;;;;;;;;11.20;61.82;99712.95;108422;1253;59746;-63
2023/10/09 08:03:23;;;;;;;1.60;1.00;;;;;;;11.22;60.02;99711.27;108406;1253;74065;-64
2023/10/09 08:05:53;;;;;;;0.90;0.60;;;;;;;11.26;60.85;99714.41;108446;1254;69182;-63
2023/10/09 08:16:51;;;;;;;2.30;0.70;;;;;;;11.52;57.95;99702.02;108357;1253;73621;-63
2023/10/09 08:19:34;;;;;;;2.10;0.80;;;;;;;11.57;57.31;99710.74;108267;1253;69547;-63
2023/10/09 08:22:37;;;;;;;1.30;0.50;;;;;;;11.45;54.28;99704.27;108189;1253;72468;-63
2023/10/09 08:25:05;;;;;;;1.60;0.60;;;;;;;11.51;54.33;99709.45;108228;1253;59446;-64
2023/10/09 08:35:48;;;;;;;1.70;0.70;;;;;;;11.81;54.47;99707.52;108439;1253;72549;-66
2023/10/09 08:38:23;;;;;;;1.00;0.60;;;;;;;11.95;54.66;99708.30;108262;1255;60004;-63
2023/10/09 08:40:58;;;;;;;1.20;0.60;;;;;;;12.05;54.03;99705.38;108383;1253;60082;-64
2023/10/09 08:43:30;;;;;;;1.40;0.90;;;;;;;12.09;53.45;99705.20;108357;1252;74123;-67
2023/10/09 08:46:00;;;;;;;1.50;0.70;;;;;;;12.08;51.59;99707.53;108208;1252;69172;-63
2023/10/09 08:48:29;;;;;;;1.80;0.70;;;;;;;12.05;51.27;99703.13;107934;1254;72619;-66
2023/10/09 08:50:57;;;;;;;1.60;1.00;;;;;;;12.15;52.14;99704.20;108163;1254;59696;-63
2023/10/09 08:53:27;;;;;;;1.10;0.80;;;;;;;12.26;50.93;99697.89;108218;1253;59800;-64
2023/10/09 08:55:55;;;;;;;1.60;0.70;;;;;;;12.30;51.12;99700.50;108261;1253;74059;-63
2023/10/09 08:58:30;;;;;;;2.00;0.80;;;;;;;12.32;51.41;99702.13;108312;1253;68579;-63
2023/10/09 09:01:00;;;;;;;1.30;0.70;;;;;;;12.38;52.12;99699.74;108418;1253;72821;-63
2023/10/09 09:03:39;;;;;;;2.00;1.10;;;;;;;12.44;52.05;99703.84;108289;1253;59815;-66
2023/10/09 09:06:06;;;;;;;1.30;0.70;;;;;;;12.47;51.86;99707.73;108275;1253;60345;-63
2023/10/09 09:08:37;;;;;;;3.60;0.90;;;;;;;12.50;51.39;99713.58;108325;1253;73992;-63
2023/10/09 09:11:11;;;;;;;1.10;0.80;;;;;;;12.54;51.04;99715.99;108215;1253;69229;-64
2023/10/09 09:13:53;;;;;;;1.20;0.70;;;;;;;12.66;50.95;99717.20;108323;1253;72381;-62
2023/10/09 09:16:22;;;;;;;2.50;0.80;;;;;;;12.61;50.72;99722.33;108364;1253;59782;-65
2023/10/09 09:19:03;;;;;;;2.20;0.80;;;;;;;12.67;50.22;99720.47;108227;1253;59622;-63
2023/10/09 09:21:40;;;;;;;0.80;0.80;;;;;;;12.73;50.35;99720.52;108220;1253;74026;-64
2023/10/09 09:24:26;;;;;;;;;;;;;;;12.77;48.84;99724.20;108195;1253;1097479;-69
2023/10/09 09:27:54;;;;;;;0.70;0.70;;;;;;;12.31;50.56;99717.27;101044;1301;616164;-65
2023/10/09 09:30:28;;;;;;;2.40;0.60;;;;;;;12.73;48.86;99718.05;103643;1272;60696;-63
2023/10/09 09:36:02;;;;;;;1.10;0.80;;;;;;;12.72;47.76;99719.84;103686;1280;72109;-62
2023/10/09 09:38:47;;;;;;;1.30;0.80;;;;;;;12.73;47.53;99718.08;103836;1267;70149;-62
2023/10/09 09:41:24;;;;;;;2.40;0.60;;;;;;;12.76;46.87;99723.35;103823;1273;250688;-66
2023/10/09 09:44:00;;;;;;;2.40;0.90;;;;;;;12.76;46.49;99720.55;103993;1267;60283;-63
2023/10/09 09:46:34;;;;;;;0.90;0.60;;;;;;;12.79;46.86;99717.23;104011;1270;60309;-64
2023/10/09 09:49:05;;;;;;;1.30;0.70;;;;;;;12.92;47.50;99712.51;104170;1275;70668;-64
2023/10/09 09:51:32;;;;;;;1.70;0.80;;;;;;;13.10;47.64;99712.80;104307;1263;69306;-64
2023/10/09 09:53:59;;;;;;;1.00;0.60;;;;;;;13.23;46.29;99716.17;104241;1263;72684;-64
2023/10/09 09:56:26;;;;;;;1.30;0.80;;;;;;;13.34;46.12;99714.95;104112;1279;60151;-64
2023/10/09 09:58:53;;;;;;;2.70;0.80;;;;;;;13.31;43.98;99712.98;103550;1269;60548;-64
2023/10/09 10:01:26;;;;;;;1.50;0.70;;;;;;;13.35;44.35;99708.38;103885;1270;72279;-63
2023/10/09 10:04:04;;;;;;;1.70;0.90;;;;;;;13.40;43.99;99711.65;103680;1270;69860;-62
2023/10/09 10:06:32;;;;;;;2.50;0.70;;;;;;;13.36;42.69;99700.59;103755;1267;73112;-64
2023/10/09 10:09:04;;;;;;;2.70;0.70;;;;;;;13.50;43.49;99707.73;103882;1277;60135;-62
2023/10/09 10:11:51;;;;;;;0.70;0.70;;;;;;;13.67;43.85;99712.29;103994;1273;60293;-62
2023/10/09 10:14:28;;;;;;;2.20;0.70;;;;;;;13.74;42.19;99709.23;103982;1280;72794;-61
2023/10/09 10:17:00;;;;;;;1.60;0.70;;;;;;;13.71;41.97;99705.39;103957;1264;69761;-61
2023/10/09 10:19:56;;;;;;;0.60;0.50;;;;;;;13.70;42.98;99695.20;106021;1263;72917;-64
2023/10/09 10:22:27;;;;;;;2.00;0.60;;;;;;;13.84;42.41;99701.52;106697;1263;61141;-62
2023/10/09 10:24:54;;;;;;;0.80;0.60;;;;;;;13.87;41.55;99694.09;106454;1263;59874;-62
2023/10/09 10:27:26;;;;;;;1.40;0.50;;;;;;;14.01;42.27;99693.68;106931;1263;73569;-62
2023/10/09 10:30:24;;;;;;;0.80;0.70;;;;;;;14.03;40.26;99683.70;107006;1263;68395;-62
2023/10/09 10:32:54;;;;;;;0.60;0.50;;;;;;;14.04;39.85;99686.64;106969;1263;72486;-65
2023/10/09 10:35:32;;;;;;;3.20;0.90;;;;;;;14.03;39.71;99680.15;104367;1275;60064;-63
2023/10/09 10:38:11;;;;;;;4.30;1.00;;;;;;;14.03;39.81;99679.98;104127;1263;59642;-62
2023/10/09 10:40:39;;;;;;;1.80;0.70;;;;;;;14.07;40.37;99675.41;104006;1275;73094;-66
2023/10/09 10:43:32;;;;;;;1.90;0.70;;;;;;;14.05;39.84;99671.79;103966;1267;69200;-65
2023/10/09 10:49:00;;;;;;;1.50;0.90;;;;;;;13.99;38.99;99666.12;104280;1267;59918;-64
2023/10/09 10:51:40;;;;;;;0.70;0.70;;;;;;;14.15;39.93;99655.18;106928;1264;60165;-65
2023/10/09 10:56:53;;;;;;;1.30;0.80;;;;;;;14.46;38.92;99651.27;105652;1262;69280;-63
2023/10/09 10:59:24;;;;;;;2.00;0.80;;;;;;;14.55;39.04;99646.33;103745;1261;73074;-65
2023/10/09 11:04:44;;;;;;;3.00;0.80;;;;;;;14.70;37.90;99639.85;104184;1260;61044;-65
2023/10/09 11:13:30;;;;;;;1.90;0.60;;;;;;;14.86;37.49;99636.92;104102;1276;71215;-64
2023/10/09 11:18:46;;;;;;;1.00;0.60;;;;;;;14.86;37.62;99625.66;103966;1267;60546;-63
2023/10/09 11:32:25;;;;;;;0.90;0.70;;;;;;;15.25;37.36;99626.41;103936;1266;60395;-62
2023/10/09 11:35:29;;;;;;;0.70;0.50;;;;;;;15.30;36.46;99634.03;104283;1264;73318;-63
2023/10/09 11:37:58;;;;;;;1.20;0.60;;;;;;;15.34;36.79;99633.65;104213;1261;69308;-62
2023/10/09 11:40:47;;;;;;;0.50;0.50;;;;;;;15.31;36.46;99637.69;104287;1261;72589;-63
2023/10/09 11:43:14;;;;;;;0.60;0.50;;;;;;;15.38;37.13;99633.71;103985;1265;59778;-63
2023/10/09 11:45:54;;;;;;;1.30;0.40;;;;;;;15.54;36.94;99623.73;104081;1268;59934;-64
2023/10/09 11:48:24;;;;;;;0.70;0.50;;;;;;;15.75;36.00;99620.29;104457;1266;73726;-64
2023/10/09 11:53:45;;;;;;;1.50;0.50;;;;;;;16.03;36.67;99616.00;103951;1267;72484;-62
2023/10/09 11:56:16;;;;;;;1.10;0.70;;;;;;;16.09;36.34;99622.17;104092;1264;59905;-65
2023/10/09 11:58:43;;;;;;;0.80;0.40;;;;;;;16.12;35.91;99632.88;104046;1261;60805;-64
2023/10/09 12:01:17;;;;;;;0.90;0.60;;;;;;;16.09;36.24;99626.73;104219;1260;73744;-64
2023/10/09 12:03:49;;;;;;;1.00;0.70;;;;;;;16.05;36.01;99631.23;104082;1265;69288;-69
2023/10/09 12:06:18;;;;;;;6.70;0.70;;;;;;;16.04;36.26;99637.52;104159;1264;72756;-63
2023/10/09 12:08:49;;;;;;;1.40;0.40;;;;;;;16.03;36.08;99638.65;104050;1262;59746;-64
2023/10/09 12:11:22;;;;;;;2.40;0.60;;;;;;;16.02;35.67;99640.79;103933;1263;59981;-67
2023/10/09 12:13:56;;;;;;;1.90;0.50;;;;;;;16.04;35.65;99638.23;104027;1267;73183;-65
2023/10/09 12:16:27;;;;;;;0.50;0.40;;;;;;;16.08;35.65;99625.57;104092;1264;68479;-65
2023/10/09 12:18:55;;;;;;;1.40;0.70;;;;;;;16.15;35.60;99635.50;104043;1276;72108;-66
2023/10/09 12:21:24;;;;;;;1.50;1.00;;;;;;;16.21;35.54;99638.83;105543;1260;60052;-66
2023/10/09 12:23:57;;;;;;;0.90;0.70;;;;;;;16.26;34.55;99637.65;107186;1260;60893;-66
2023/10/09 12:26:28;;;;;;;2.80;0.50;;;;;;;16.28;35.04;99631.83;104401;1261;73793;-66
2023/10/09 12:28:57;;;;;;;2.40;0.90;;;;;;;16.31;35.16;99630.94;104165;1261;69529;-64
2023/10/09 12:31:24;;;;;;;0.70;0.60;;;;;;;16.33;35.36;99625.16;104218;1260;73449;-68
2023/10/09 12:33:51;;;;;;;5.60;0.60;;;;;;;16.30;35.23;99623.03;103923;1265;59779;-66
2023/10/09 12:36:22;;;;;;;2.30;0.60;;;;;;;16.25;34.71;99621.80;103811;1278;59653;-65
2023/10/09 12:38:58;;;;;;;1.10;0.50;;;;;;;16.11;34.84;99618.82;104065;1267;72706;-65
2023/10/09 12:41:28;;;;;;;0.70;0.50;;;;;;;16.01;35.20;99618.05;103924;1264;70447;-64
2023/10/09 12:43:57;;;;;;;0.70;0.70;;;;;;;15.93;35.02;99614.18;104001;1263;72719;-66
2023/10/09 12:46:25;;;;;;;0.40;0.40;;;;;;;15.80;35.12;99616.77;104271;1262;60912;-65
2023/10/09 12:48:54;;;;;;;1.50;0.50;;;;;;;15.73;35.10;99606.77;104765;1257;59844;-65
2023/10/09 12:51:29;;;;;;;0.70;0.60;;;;;;;15.62;35.55;99605.35;106056;1252;72844;-68
2023/10/09 12:53:58;;;;;;;1.40;0.60;;;;;;;15.53;35.76;99600.64;108371;1252;70345;-67
2023/10/09 12:56:37;;;;;;;1.80;0.90;;;;;;;15.46;35.77;99602.85;107213;1252;73285;-67
2023/10/09 12:59:14;;;;;;;1.20;0.80;;;;;;;15.39;35.97;99607.19;104576;1254;59736;-66
2023/10/09 13:01:45;;;;;;;1.10;0.50;;;;;;;15.34;35.99;99609.07;105354;1253;59603;-66
2023/10/09 13:04:15;;;;;;;1.10;0.60;;;;;;;15.26;35.85;99607.64;104699;1257;72758;-65
2023/10/09 13:06:45;;;;;;;0.50;0.40;;;;;;;15.18;35.92;99615.56;104565;1252;70354;-68
2023/10/09 13:09:16;;;;;;;4.70;3.40;;;;;;;15.08;35.89;99615.09;104457;1252;71797;-67
2023/10/09 13:11:43;;;;;;;1.10;0.90;;;;;;;14.94;35.35;99612.61;104468;1263;60902;-66
2023/10/09 13:14:23;;;;;;;1.10;1.00;;;;;;;14.83;35.45;99613.65;104474;1256;59827;-66
2023/10/09 13:16:50;;;;;;;1.30;0.60;;;;;;;14.61;35.65;99619.35;104690;1257;73130;-63
2023/10/09 13:19:17;;;;;;;2.20;0.80;;;;;;;14.50;36.37;99616.31;104257;1258;69929;-64
2023/10/09 13:21:44;;;;;;;3.90;0.90;;;;;;;14.44;36.77;99618.77;107815;1252;73722;-64
2023/10/09 13:24:15;;;;;;;1.80;0.60;;;;;;;14.40;37.10;99617.06;108187;1252;60115;-63
2023/10/09 13:26:45;;;;;;;1.10;0.60;;;;;;;14.29;37.68;99616.64;104803;1254;59670;-63
2023/10/09 13:29:13;;;;;;;2.70;0.60;;;;;;;14.26;37.73;99612.79;104654;1256;73971;-63
2023/10/09 13:31:46;;;;;;;1.40;0.80;;;;;;;14.24;38.16;99606.34;104378;1253;70408;-61
2023/10/09 13:34:16;;;;;;;2.40;0.70;;;;;;;14.22;38.04;99603.13;104402;1257;73244;-61
2023/10/09 13:37:09;;;;;;;1.50;0.70;;;;;;;14.19;38.46;99605.77;105339;1253;61488;-62
2023/10/09 13:39:39;;;;;;;0.90;0.60;;;;;;;14.20;38.73;99604.09;104431;1253;60009;-62
2023/10/09 13:42:07;;;;;;;1.70;0.80;;;;;;;14.23;38.78;99606.42;104355;1255;73005;-64
2023/10/09 13:44:41;;;;;;;1.40;0.80;;;;;;;14.23;38.60;99609.79;104438;1258;68774;-63
2023/10/09 13:47:18;;;;;;;1.40;0.80;;;;;;;14.16;38.67;99610.67;104397;1254;71595;-62
2023/10/09 13:49:45;;;;;;;4.30;0.90;;;;;;;14.12;38.86;99611.13;104365;1254;60565;-63
2023/10/09 13:52:17;;;;;;;1.10;1.00;;;;;;;14.05;39.04;99609.73;104334;1268;59956;-64
2023/10/09 13:54:49;;;;;;;1.10;0.80;;;;;;;13.94;38.74;99610.91;104405;1258;74083;-64
2023/10/09 13:57:16;;;;;;;1.10;0.70;;;;;;;13.85;39.06;99615.67;104365;1257;69506;-64
2023/10/09 13:59:51;;;;;;;1.60;0.80;;;;;;;13.78;39.10;99616.91;104460;1252;72988;-62
2023/10/09 14:02:21;;;;;;;1.00;0.50;;;;;;;13.66;39.01;99618.63;104348;1269;59960;-63
2023/10/09 14:04:48;;;;;;;0.90;0.70;;;;;;;13.57;39.18;99620.22;104695;1252;61060;-62
2023/10/09 14:07:20;;;;;;;2.70;0.90;;;;;;;13.52;39.65;99619.02;104773;1253;73708;-62
2023/10/09 14:09:55;;;;;;;0.90;0.70;;;;;;;13.54;39.93;99620.35;104669;1252;70429;-63
2023/10/09 14:12:23;;;;;;;1.40;0.80;;;;;;;13.52;40.05;99620.84;104759;1258;72223;-62
2023/10/09 14:14:53;;;;;;;2.20;1.00;;;;;;;13.49;39.89;99619.23;104798;1258;60586;-62
2023/10/09 14:17:28;;;;;;;3.30;1.30;;;;;;;13.47;39.90;99618.13;104794;1263;60666;-69
2023/10/09 14:20:00;;;;;;;1.50;0.90;;;;;;;13.43;40.04;99619.36;105079;1252;73894;-62
2023/10/09 14:22:29;;;;;;;1.10;0.90;;;;;;;13.38;40.22;99617.71;107509;1253;69761;-64
2023/10/09 14:24:56;;;;;;;2.30;1.30;;;;;;;13.35;40.44;99620.85;108275;1252;72360;-62
2023/10/09 14:27:35;;;;;;;1.40;1.00;;;;;;;13.30;40.11;99617.77;104985;1255;60582;-62
2023/10/09 14:30:12;;;;;;;2.90;1.10;;;;;;;13.23;40.31;99621.70;105366;1254;61340;-62
2023/10/09 14:32:51;;;;;;;1.50;1.10;;;;;;;13.15;40.37;99622.78;104631;1253;74281;-64
2023/10/09 14:35:21;;;;;;;1.90;1.20;;;;;;;13.11;40.41;99623.35;104778;1253;70046;-65
2023/10/09 14:37:48;;;;;;;1.60;1.10;;;;;;;13.08;40.53;99628.84;104509;1256;73172;-62